sensor_id;sensor_type;location;lat;lon;timestamp;pressure;altitude;pressure_sealevel;temperature;humidity
71697;BME280;68167;59.120;37.898;2023-07-31T00:01:23;98951.91;;;17.32;68.78
71697;BME280;68167;59.120;37.898;2023-07-31T00:03:50;98933.91;;;17.24;68.83
71697;BME280;68167;59.120;37.898;2023-07-31T00:06:16;98938.50;;;17.24;69.10
71697;BME280;68167;59.120;37.898;2023-07-31T00:08:43;98902.78;;;17.06;69.28
71697;BME280;68167;59.120;37.898;2023-07-31T00:11:09;98973.38;;;17.50;69.24
71697;BME280;68167;59.120;37.898;2023-07-31T00:13:36;98941.47;;;17.31;68.96
71697;BME280;68167;59.120;37.898;2023-07-31T00:16:02;98946.53;;;17.32;69.44
71697;BME280;68167;59.120;37.898;2023-07-31T00:18:29;98983.97;;;17.55;69.09
71697;BME280;68167;59.120;37.898;2023-07-31T00:20:55;98911.00;;;17.09;68.92
71697;BME280;68167;59.120;37.898;2023-07-31T00:23:22;98983.63;;;17.56;68.91
71697;BME280;68167;59.120;37.898;2023-07-31T00:25:49;98991.84;;;17.60;69.05
71697;BME280;68167;59.120;37.898;2023-07-31T00:28:15;98996.13;;;17.61;69.13
71697;BME280;68167;59.120;37.898;2023-07-31T00:30:42;98980.16;;;17.56;69.05
71697;BME280;68167;59.120;37.898;2023-07-31T00:33:08;98962.19;;;17.39;69.00
71697;BME280;68167;59.120;37.898;2023-07-31T00:35:37;98928.22;;;17.17;69.19
71697;BME280;68167;59.120;37.898;2023-07-31T00:38:04;99004.84;;;17.58;69.33
71697;BME280;68167;59.120;37.898;2023-07-31T00:40:34;99002.63;;;17.60;69.43
71697;BME280;68167;59.120;37.898;2023-07-31T00:43:02;99015.75;;;17.61;69.45
71697;BME280;68167;59.120;37.898;2023-07-31T00:45:29;99011.34;;;17.57;69.12
71697;BME280;68167;59.120;37.898;2023-07-31T00:47:57;99005.38;;;17.51;69.65
71697;BME280;68167;59.120;37.898;2023-07-31T00:50:28;98981.69;;;17.27;69.37
71697;BME280;68167;59.120;37.898;2023-07-31T00:52:55;99013.78;;;17.41;69.86
71697;BME280;68167;59.120;37.898;2023-07-31T00:55:21;98976.97;;;17.16;69.57
71697;BME280;68167;59.120;37.898;2023-07-31T00:57:49;99010.47;;;17.35;69.73
71697;BME280;68167;59.120;37.898;2023-07-31T01:00:19;99028.50;;;17.43;69.78
71697;BME280;68167;59.120;37.898;2023-07-31T01:02:46;99022.81;;;17.36;70.09
71697;BME280;68167;59.120;37.898;2023-07-31T01:05:13;99012.06;;;17.28;70.34
71697;BME280;68167;59.120;37.898;2023-07-31T01:07:54;99007.16;;;17.21;70.04
71697;BME280;68167;59.120;37.898;2023-07-31T01:10:38;99025.97;;;17.30;69.79
71697;BME280;68167;59.120;37.898;2023-07-31T01:13:08;99017.75;;;17.26;70.55
71697;BME280;68167;59.120;37.898;2023-07-31T01:15:35;98994.38;;;17.09;70.55
71697;BME280;68167;59.120;37.898;2023-07-31T01:18:01;99025.03;;;17.26;70.26
71697;BME280;68167;59.120;37.898;2023-07-31T01:20:29;98993.44;;;17.05;70.41
71697;BME280;68167;59.120;37.898;2023-07-31T01:23:36;98993.44;;;17.05;69.95
71697;BME280;68167;59.120;37.898;2023-07-31T01:26:19;98963.09;;;16.79;70.59
71697;BME280;68167;59.120;37.898;2023-07-31T01:29:03;99029.16;;;17.32;70.99
71697;BME280;68167;59.120;37.898;2023-07-31T01:31:33;99035.31;;;17.32;71.01
71697;BME280;68167;59.120;37.898;2023-07-31T01:34:01;98997.38;;;17.08;70.73
71697;BME280;68167;59.120;37.898;2023-07-31T01:36:28;99032.47;;;17.29;70.71
71697;BME280;68167;59.120;37.898;2023-07-31T01:39:00;99045.44;;;17.35;70.37
71697;BME280;68167;59.120;37.898;2023-07-31T01:41:27;99011.75;;;17.21;70.49
71697;BME280;68167;59.120;37.898;2023-07-31T01:43:54;98972.25;;;16.95;70.46
71697;BME280;68167;59.120;37.898;2023-07-31T01:46:23;99002.25;;;17.23;70.69
71697;BME280;68167;59.120;37.898;2023-07-31T01:48:49;99004.94;;;17.32;70.42
71697;BME280;68167;59.120;37.898;2023-07-31T01:51:16;99014.88;;;17.40;70.46
71697;BME280;68167;59.120;37.898;2023-07-31T01:53:43;99016.94;;;17.43;70.24
71697;BME280;68167;59.120;37.898;2023-07-31T01:56:09;99000.03;;;17.34;69.97
71697;BME280;68167;59.120;37.898;2023-07-31T01:58:36;98993.22;;;17.36;69.94
71697;BME280;68167;59.120;37.898;2023-07-31T02:01:02;99003.00;;;17.41;69.93
71697;BME280;68167;59.120;37.898;2023-07-31T02:03:29;99017.97;;;17.59;69.64
71697;BME280;68167;59.120;37.898;2023-07-31T02:05:55;98993.84;;;17.42;69.58
71697;BME280;68167;59.120;37.898;2023-07-31T02:08:25;99009.75;;;17.56;69.43
71697;BME280;68167;59.120;37.898;2023-07-31T02:10:52;98977.84;;;17.37;69.49
71697;BME280;68167;59.120;37.898;2023-07-31T02:13:18;98985.25;;;17.49;69.22
71697;BME280;68167;59.120;37.898;2023-07-31T02:15:45;99012.41;;;17.73;69.16
71697;BME280;68167;59.120;37.898;2023-07-31T02:18:12;98981.72;;;17.57;68.74
71697;BME280;68167;59.120;37.898;2023-07-31T02:20:38;98998.34;;;17.67;68.81
71697;BME280;68167;59.120;37.898;2023-07-31T02:23:05;99004.81;;;17.75;68.67
71697;BME280;68167;59.120;37.898;2023-07-31T02:25:31;98976.34;;;17.57;68.81
71697;BME280;68167;59.120;37.898;2023-07-31T02:27:58;98998.50;;;17.71;68.68
71697;BME280;68167;59.120;37.898;2023-07-31T02:30:25;99035.16;;;17.93;68.84
71697;BME280;68167;59.120;37.898;2023-07-31T02:32:52;99010.16;;;17.84;68.53
71697;BME280;68167;59.120;37.898;2023-07-31T02:35:18;98993.25;;;17.74;68.80
71697;BME280;68167;59.120;37.898;2023-07-31T02:37:46;99017.88;;;17.94;68.58
71697;BME280;68167;59.120;37.898;2023-07-31T02:40:13;99023.41;;;17.97;68.65
71697;BME280;68167;59.120;37.898;2023-07-31T02:42:40;99019.75;;;18.02;68.92
71697;BME280;68167;59.120;37.898;2023-07-31T02:45:07;98994.47;;;17.86;68.47
71697;BME280;68167;59.120;37.898;2023-07-31T02:47:33;99001.34;;;18.04;68.52
71697;BME280;68167;59.120;37.898;2023-07-31T02:50:05;99003.88;;;18.09;68.81
71697;BME280;68167;59.120;37.898;2023-07-31T02:52:31;98972.75;;;17.91;68.70
71697;BME280;68167;59.120;37.898;2023-07-31T02:54:58;99011.91;;;18.18;68.69
71697;BME280;68167;59.120;37.898;2023-07-31T02:57:25;98983.00;;;17.97;68.61
71697;BME280;68167;59.120;37.898;2023-07-31T02:59:51;99017.94;;;18.15;68.58
71697;BME280;68167;59.120;37.898;2023-07-31T03:02:18;99010.19;;;18.13;68.87
71697;BME280;68167;59.120;37.898;2023-07-31T03:04:45;98986.34;;;17.94;68.61
71697;BME280;68167;59.120;37.898;2023-07-31T03:07:11;99004.34;;;18.11;68.75
71697;BME280;68167;59.120;37.898;2023-07-31T03:09:38;99020.19;;;18.13;68.82
71697;BME280;68167;59.120;37.898;2023-07-31T03:12:05;98988.75;;;17.87;69.14
71697;BME280;68167;59.120;37.898;2023-07-31T03:14:32;98969.81;;;17.75;69.39
71697;BME280;68167;59.120;37.898;2023-07-31T03:16:59;98966.97;;;17.71;69.13
71697;BME280;68167;59.120;37.898;2023-07-31T03:19:25;99007.56;;;17.96;69.58
71697;BME280;68167;59.120;37.898;2023-07-31T03:21:52;98996.53;;;17.89;69.50
71697;BME280;68167;59.120;37.898;2023-07-31T03:24:18;98977.88;;;17.75;69.27
71697;BME280;68167;59.120;37.898;2023-07-31T03:26:45;99000.47;;;17.91;69.29
71697;BME280;68167;59.120;37.898;2023-07-31T03:29:11;99008.03;;;17.98;68.85
71697;BME280;68167;59.120;37.898;2023-07-31T03:31:38;99003.31;;;17.95;69.00
71697;BME280;68167;59.120;37.898;2023-07-31T03:34:04;99000.91;;;18.02;69.27
71697;BME280;68167;59.120;37.898;2023-07-31T03:36:31;99006.75;;;18.04;69.02
71697;BME280;68167;59.120;37.898;2023-07-31T03:38:58;99002.47;;;18.03;68.94
71697;BME280;68167;59.120;37.898;2023-07-31T03:41:25;99000.75;;;17.98;69.12
71697;BME280;68167;59.120;37.898;2023-07-31T03:43:51;98971.22;;;17.81;68.67
71697;BME280;68167;59.120;37.898;2023-07-31T03:46:19;99006.13;;;17.98;68.45
71697;BME280;68167;59.120;37.898;2023-07-31T03:48:45;98989.38;;;17.93;68.58
71697;BME280;68167;59.120;37.898;2023-07-31T03:51:12;99018.63;;;18.03;68.51
71697;BME280;68167;59.120;37.898;2023-07-31T03:53:38;98969.81;;;17.75;67.95
71697;BME280;68167;59.120;37.898;2023-07-31T03:56:05;99016.25;;;18.01;68.57
71697;BME280;68167;59.120;37.898;2023-07-31T03:58:31;98979.16;;;17.77;68.22
71697;BME280;68167;59.120;37.898;2023-07-31T04:00:58;98974.69;;;17.82;68.35
71697;BME280;68167;59.120;37.898;2023-07-31T04:03:24;98941.16;;;17.70;68.04
71697;BME280;68167;59.120;37.898;2023-07-31T04:05:53;98998.81;;;18.07;68.15
71697;BME280;68167;59.120;37.898;2023-07-31T04:08:20;98979.84;;;17.95;67.77
71697;BME280;68167;59.120;37.898;2023-07-31T04:10:46;98978.56;;;18.01;67.91
71697;BME280;68167;59.120;37.898;2023-07-31T04:13:13;99022.41;;;18.31;67.60
71697;BME280;68167;59.120;37.898;2023-07-31T04:15:40;98960.31;;;18.07;67.50
71697;BME280;68167;59.120;37.898;2023-07-31T04:18:06;99015.88;;;18.41;67.27
71697;BME280;68167;59.120;37.898;2023-07-31T04:20:33;99003.19;;;18.41;66.98
71697;BME280;68167;59.120;37.898;2023-07-31T04:22:59;98977.78;;;18.22;67.27
71697;BME280;68167;59.120;37.898;2023-07-31T04:25:26;99010.75;;;18.48;66.57
71697;BME280;68167;59.120;37.898;2023-07-31T04:27:53;99011.81;;;18.56;66.79
71697;BME280;68167;59.120;37.898;2023-07-31T04:30:19;99021.09;;;18.67;66.68
71697;BME280;68167;59.120;37.898;2023-07-31T04:32:46;98969.25;;;18.40;66.37
71697;BME280;68167;59.120;37.898;2023-07-31T04:35:12;99014.22;;;18.78;66.14
71697;BME280;68167;59.120;37.898;2023-07-31T04:37:39;98956.56;;;18.41;66.37
71697;BME280;68167;59.120;37.898;2023-07-31T04:40:05;99026.16;;;18.89;66.01
71697;BME280;68167;59.120;37.898;2023-07-31T04:42:35;99004.09;;;18.87;66.16
71697;BME280;68167;59.120;37.898;2023-07-31T04:45:01;98992.31;;;18.80;66.07
71697;BME280;68167;59.120;37.898;2023-07-31T04:47:31;99025.22;;;19.06;65.63
71697;BME280;68167;59.120;37.898;2023-07-31T04:49:57;98957.31;;;18.71;66.04
71697;BME280;68167;59.120;37.898;2023-07-31T04:52:24;99007.13;;;19.06;65.67
71697;BME280;68167;59.120;37.898;2023-07-31T04:54:50;98965.91;;;18.85;65.54
71697;BME280;68167;59.120;37.898;2023-07-31T04:57:17;98987.66;;;19.01;65.15
71697;BME280;68167;59.120;37.898;2023-07-31T04:59:43;99025.38;;;19.22;65.26
71697;BME280;68167;59.120;37.898;2023-07-31T05:02:11;99026.31;;;19.26;65.00
71697;BME280;68167;59.120;37.898;2023-07-31T05:04:38;99020.91;;;19.26;65.02
71697;BME280;68167;59.120;37.898;2023-07-31T05:07:05;99036.88;;;19.31;65.09
71697;BME280;68167;59.120;37.898;2023-07-31T05:09:31;99032.28;;;19.31;64.82
71697;BME280;68167;59.120;37.898;2023-07-31T05:11:58;98991.25;;;19.05;64.45
71697;BME280;68167;59.120;37.898;2023-07-31T05:14:25;99002.44;;;19.16;64.89
71697;BME280;68167;59.120;37.898;2023-07-31T05:16:52;99016.50;;;19.21;64.97
71697;BME280;68167;59.120;37.898;2023-07-31T05:19:19;99031.81;;;19.29;64.88
71697;BME280;68167;59.120;37.898;2023-07-31T05:21:45;99031.16;;;19.32;65.25
71697;BME280;68167;59.120;37.898;2023-07-31T05:24:12;99003.69;;;19.18;64.82
71697;BME280;68167;59.120;37.898;2023-07-31T05:26:38;98989.94;;;19.11;64.92
71697;BME280;68167;59.120;37.898;2023-07-31T05:29:05;98995.78;;;19.13;64.71
71697;BME280;68167;59.120;37.898;2023-07-31T05:31:31;98999.28;;;19.14;64.85
71697;BME280;68167;59.120;37.898;2023-07-31T05:33:58;98990.25;;;19.09;64.40
71697;BME280;68167;59.120;37.898;2023-07-31T05:36:25;99000.28;;;19.09;64.48
71697;BME280;68167;59.120;37.898;2023-07-31T05:38:51;99042.53;;;19.38;64.55
71697;BME280;68167;59.120;37.898;2023-07-31T05:41:18;99002.75;;;19.14;64.31
71697;BME280;68167;59.120;37.898;2023-07-31T05:43:47;99012.03;;;19.25;64.28
71697;BME280;68167;59.120;37.898;2023-07-31T05:46:13;99028.72;;;19.39;64.29
71697;BME280;68167;59.120;37.898;2023-07-31T05:48:40;99038.97;;;19.46;64.30
71697;BME280;68167;59.120;37.898;2023-07-31T05:51:07;98987.16;;;19.20;63.85
71697;BME280;68167;59.120;37.898;2023-07-31T05:53:34;99042.03;;;19.57;63.63
71697;BME280;68167;59.120;37.898;2023-07-31T05:56:02;99048.00;;;19.62;64.03
71697;BME280;68167;59.120;37.898;2023-07-31T05:58:28;98996.88;;;19.33;63.81
71697;BME280;68167;59.120;37.898;2023-07-31T06:00:55;99032.34;;;19.56;63.70
71697;BME280;68167;59.120;37.898;2023-07-31T06:03:21;99023.91;;;19.57;64.04
71697;BME280;68167;59.120;37.898;2023-07-31T06:05:48;99015.91;;;19.49;63.53
71697;BME280;68167;59.120;37.898;2023-07-31T06:08:14;99003.41;;;19.44;63.49
71697;BME280;68167;59.120;37.898;2023-07-31T06:10:41;99000.94;;;19.39;63.44
71697;BME280;68167;59.120;37.898;2023-07-31T06:13:07;99043.06;;;19.64;63.61
71697;BME280;68167;59.120;37.898;2023-07-31T06:15:34;99048.13;;;19.66;63.54
71697;BME280;68167;59.120;37.898;2023-07-31T06:18:01;99000.06;;;19.47;63.08
71697;BME280;68167;59.120;37.898;2023-07-31T06:20:29;99010.28;;;19.54;63.36
71697;BME280;68167;59.120;37.898;2023-07-31T06:22:55;99033.50;;;19.67;63.48
71697;BME280;68167;59.120;37.898;2023-07-31T06:25:22;99029.34;;;19.69;63.26
71697;BME280;68167;59.120;37.898;2023-07-31T06:27:48;99043.63;;;19.70;62.64
71697;BME280;68167;59.120;37.898;2023-07-31T06:30:15;99009.06;;;19.51;62.26
71697;BME280;68167;59.120;37.898;2023-07-31T06:32:42;99015.94;;;19.61;62.83
71697;BME280;68167;59.120;37.898;2023-07-31T06:35:09;98981.56;;;19.37;63.15
71697;BME280;68167;59.120;37.898;2023-07-31T06:37:35;98986.22;;;19.49;62.78
71697;BME280;68167;59.120;37.898;2023-07-31T06:40:02;99038.50;;;19.89;63.09
71697;BME280;68167;59.120;37.898;2023-07-31T06:42:31;99015.84;;;19.82;62.44
71697;BME280;68167;59.120;37.898;2023-07-31T06:44:58;99040.88;;;20.03;62.39
71697;BME280;68167;59.120;37.898;2023-07-31T06:47:24;99023.97;;;19.94;61.94
71697;BME280;68167;59.120;37.898;2023-07-31T06:49:51;99047.41;;;20.14;61.62
71697;BME280;68167;59.120;37.898;2023-07-31T06:52:17;99045.91;;;20.17;61.60
71697;BME280;68167;59.120;37.898;2023-07-31T06:54:44;99056.28;;;20.27;61.70
71697;BME280;68167;59.120;37.898;2023-07-31T06:57:10;99047.16;;;20.31;60.87
71697;BME280;68167;59.120;37.898;2023-07-31T06:59:37;99044.34;;;20.40;61.16
71697;BME280;68167;59.120;37.898;2023-07-31T07:02:03;99046.72;;;20.42;61.14
71697;BME280;68167;59.120;37.898;2023-07-31T07:04:30;99058.31;;;20.54;60.96
71697;BME280;68167;59.120;37.898;2023-07-31T07:06:56;99029.13;;;20.35;60.95
71697;BME280;68167;59.120;37.898;2023-07-31T07:09:23;98997.72;;;20.19;60.46
71697;BME280;68167;59.120;37.898;2023-07-31T07:11:49;99031.41;;;20.46;60.83
71697;BME280;68167;59.120;37.898;2023-07-31T07:14:16;99062.81;;;20.62;60.63
71697;BME280;68167;59.120;37.898;2023-07-31T07:16:42;99069.13;;;20.66;60.07
71697;BME280;68167;59.120;37.898;2023-07-31T07:19:09;99023.50;;;20.41;59.89
71697;BME280;68167;59.120;37.898;2023-07-31T07:21:35;99063.69;;;20.66;60.12
71697;BME280;68167;59.120;37.898;2023-07-31T07:24:02;99055.25;;;20.68;60.36
71697;BME280;68167;59.120;37.898;2023-07-31T07:26:29;99052.31;;;20.73;60.20
71697;BME280;68167;59.120;37.898;2023-07-31T07:28:55;99058.91;;;20.88;60.28
71697;BME280;68167;59.120;37.898;2023-07-31T07:31:22;99045.38;;;20.88;60.21
71697;BME280;68167;59.120;37.898;2023-07-31T07:33:48;99030.94;;;20.84;59.57
71697;BME280;68167;59.120;37.898;2023-07-31T07:36:15;99035.09;;;20.93;59.34
71697;BME280;68167;59.120;37.898;2023-07-31T07:38:41;99024.38;;;20.97;59.34
71697;BME280;68167;59.120;37.898;2023-07-31T07:41:08;99056.78;;;21.21;59.57
71697;BME280;68167;59.120;37.898;2023-07-31T07:43:35;99035.50;;;21.08;59.03
71697;BME280;68167;59.120;37.898;2023-07-31T07:46:01;99048.09;;;21.16;59.27
71697;BME280;68167;59.120;37.898;2023-07-31T07:48:28;99035.16;;;21.09;58.90
71697;BME280;68167;59.120;37.898;2023-07-31T07:50:55;99065.75;;;21.38;59.07
71697;BME280;68167;59.120;37.898;2023-07-31T07:53:21;99036.22;;;21.20;58.42
71697;BME280;68167;59.120;37.898;2023-07-31T07:55:48;99072.91;;;21.46;58.23
71697;BME280;68167;59.120;37.898;2023-07-31T07:58:14;99085.06;;;21.52;57.26
71697;BME280;68167;59.120;37.898;2023-07-31T08:00:41;99054.09;;;21.21;57.81
71697;BME280;68167;59.120;37.898;2023-07-31T08:03:07;99069.84;;;21.31;57.75
71697;BME280;68167;59.120;37.898;2023-07-31T08:05:34;99065.41;;;21.39;58.49
71697;BME280;68167;59.120;37.898;2023-07-31T08:08:00;99077.91;;;21.44;57.84
71697;BME280;68167;59.120;37.898;2023-07-31T08:10:27;99078.94;;;21.55;58.55
71697;BME280;68167;59.120;37.898;2023-07-31T08:12:53;99065.94;;;21.45;57.85
71697;BME280;68167;59.120;37.898;2023-07-31T08:15:20;99055.78;;;21.42;57.59
71697;BME280;68167;59.120;37.898;2023-07-31T08:17:46;99068.91;;;21.55;58.14
71697;BME280;68167;59.120;37.898;2023-07-31T08:20:13;99052.81;;;21.47;58.04
71697;BME280;68167;59.120;37.898;2023-07-31T08:22:40;99098.03;;;21.74;57.51
71697;BME280;68167;59.120;37.898;2023-07-31T08:25:07;99089.56;;;21.76;57.40
71697;BME280;68167;59.120;37.898;2023-07-31T08:27:34;99084.22;;;21.63;56.38
71697;BME280;68167;59.120;37.898;2023-07-31T08:30:00;99068.03;;;21.51;56.71
71697;BME280;68167;59.120;37.898;2023-07-31T08:32:27;99093.91;;;21.64;56.73
71697;BME280;68167;59.120;37.898;2023-07-31T08:34:53;99080.63;;;21.59;56.92
71697;BME280;68167;59.120;37.898;2023-07-31T08:37:20;99061.38;;;21.49;57.33
71697;BME280;68167;59.120;37.898;2023-07-31T08:39:46;99079.13;;;21.62;56.84
71697;BME280;68167;59.120;37.898;2023-07-31T08:42:13;99075.31;;;21.63;56.75
71697;BME280;68167;59.120;37.898;2023-07-31T08:44:40;99096.56;;;21.77;56.33
71697;BME280;68167;59.120;37.898;2023-07-31T08:47:07;99097.00;;;21.79;56.61
71697;BME280;68167;59.120;37.898;2023-07-31T08:49:35;99105.56;;;21.81;56.70
71697;BME280;68167;59.120;37.898;2023-07-31T08:52:03;99059.19;;;21.54;56.28
71697;BME280;68167;59.120;37.898;2023-07-31T08:54:30;99095.53;;;21.81;55.85
71697;BME280;68167;59.120;37.898;2023-07-31T08:56:59;99062.66;;;21.83;55.44
71697;BME280;68167;59.120;37.898;2023-07-31T08:59:30;99082.88;;;22.01;55.33
71697;BME280;68167;59.120;37.898;2023-07-31T09:02:03;99094.75;;;22.12;55.33
71697;BME280;68167;59.120;37.898;2023-07-31T09:04:34;99088.81;;;22.22;55.61
71697;BME280;68167;59.120;37.898;2023-07-31T09:07:02;99071.75;;;22.22;55.43
71697;BME280;68167;59.120;37.898;2023-07-31T09:09:31;99076.56;;;22.28;54.89
71697;BME280;68167;59.120;37.898;2023-07-31T09:11:58;99074.03;;;22.20;53.88
71697;BME280;68167;59.120;37.898;2023-07-31T09:14:26;99088.91;;;22.26;54.13
71697;BME280;68167;59.120;37.898;2023-07-31T09:16:54;99086.34;;;22.49;54.55
71697;BME280;68167;59.120;37.898;2023-07-31T09:19:26;99055.97;;;22.43;53.41
71697;BME280;68167;59.120;37.898;2023-07-31T09:21:53;99063.25;;;22.39;53.42
71697;BME280;68167;59.120;37.898;2023-07-31T09:24:31;99062.72;;;22.33;52.97
71697;BME280;68167;59.120;37.898;2023-07-31T09:26:59;99062.66;;;22.30;53.33
71697;BME280;68167;59.120;37.898;2023-07-31T09:29:27;99096.13;;;22.53;54.89
71697;BME280;68167;59.120;37.898;2023-07-31T09:31:54;99059.75;;;22.39;54.10
71697;BME280;68167;59.120;37.898;2023-07-31T09:34:30;99062.47;;;22.39;53.68
71697;BME280;68167;59.120;37.898;2023-07-31T09:37:03;99090.28;;;22.51;53.45
71697;BME280;68167;59.120;37.898;2023-07-31T09:39:30;99069.56;;;22.27;52.81
71697;BME280;68167;59.120;37.898;2023-07-31T09:41:57;99098.16;;;22.25;52.96
71697;BME280;68167;59.120;37.898;2023-07-31T09:44:53;99096.25;;;22.25;53.90
71697;BME280;68167;59.120;37.898;2023-07-31T09:47:23;99082.00;;;22.13;52.82
71697;BME280;68167;59.120;37.898;2023-07-31T09:49:50;99101.66;;;22.25;53.63
71697;BME280;68167;59.120;37.898;2023-07-31T09:52:17;99099.75;;;22.26;53.30
71697;BME280;68167;59.120;37.898;2023-07-31T09:54:43;99075.34;;;22.10;52.80
71697;BME280;68167;59.120;37.898;2023-07-31T09:57:10;99054.88;;;21.97;52.58
71697;BME280;68167;59.120;37.898;2023-07-31T09:59:38;99043.34;;;21.84;52.40
71697;BME280;68167;59.120;37.898;2023-07-31T10:02:08;99079.56;;;22.08;53.39
71697;BME280;68167;59.120;37.898;2023-07-31T10:04:38;99092.84;;;22.13;53.22
71697;BME280;68167;59.120;37.898;2023-07-31T10:07:05;99083.91;;;22.12;52.97
71697;BME280;68167;59.120;37.898;2023-07-31T10:09:33;99066.50;;;21.97;52.83
71697;BME280;68167;59.120;37.898;2023-07-31T10:12:02;99114.97;;;22.15;53.10
71697;BME280;68167;59.120;37.898;2023-07-31T10:14:35;99100.81;;;22.06;53.64
71697;BME280;68167;59.120;37.898;2023-07-31T10:17:03;99101.41;;;21.99;53.59
71697;BME280;68167;59.120;37.898;2023-07-31T10:19:31;99100.47;;;22.07;53.76
71697;BME280;68167;59.120;37.898;2023-07-31T10:22:02;99063.94;;;21.73;53.91
71697;BME280;68167;59.120;37.898;2023-07-31T10:24:29;99114.81;;;22.08;54.19
71697;BME280;68167;59.120;37.898;2023-07-31T10:26:58;99116.09;;;22.14;54.76
71697;BME280;68167;59.120;37.898;2023-07-31T10:29:26;99095.91;;;22.11;54.85
71697;BME280;68167;59.120;37.898;2023-07-31T10:31:57;99059.69;;;21.88;54.67
71697;BME280;68167;59.120;37.898;2023-07-31T10:34:24;99118.72;;;22.26;54.97
71697;BME280;68167;59.120;37.898;2023-07-31T10:37:24;99122.84;;;22.35;54.83
71697;BME280;68167;59.120;37.898;2023-07-31T10:40:05;99134.56;;;22.40;55.20
71697;BME280;68167;59.120;37.898;2023-07-31T10:42:35;99079.88;;;22.22;55.02
71697;BME280;68167;59.120;37.898;2023-07-31T10:45:05;99127.88;;;22.68;54.64
71697;BME280;68167;59.120;37.898;2023-07-31T10:47:42;99099.63;;;22.89;54.10
71697;BME280;68167;59.120;37.898;2023-07-31T10:52:50;99106.34;;;23.53;53.17
71697;BME280;68167;59.120;37.898;2023-07-31T10:57:47;99091.66;;;23.54;52.43
71697;BME280;68167;59.120;37.898;2023-07-31T11:00:41;99121.94;;;23.75;53.15
71697;BME280;68167;59.120;37.898;2023-07-31T11:03:19;99121.16;;;23.75;53.62
71697;BME280;68167;59.120;37.898;2023-07-31T11:08:25;99078.56;;;23.40;52.01
71697;BME280;68167;59.120;37.898;2023-07-31T11:13:40;99120.41;;;23.55;52.10
71697;BME280;68167;59.120;37.898;2023-07-31T11:16:08;99092.88;;;23.37;52.04
71697;BME280;68167;59.120;37.898;2023-07-31T11:18:35;99089.94;;;23.26;50.99
71697;BME280;68167;59.120;37.898;2023-07-31T11:21:01;99101.03;;;23.18;50.95
71697;BME280;68167;59.120;37.898;2023-07-31T11:23:28;99124.13;;;23.27;50.98
71697;BME280;68167;59.120;37.898;2023-07-31T11:25:59;99072.34;;;22.82;51.27
71697;BME280;68167;59.120;37.898;2023-07-31T11:28:25;99087.84;;;22.81;51.46
71697;BME280;68167;59.120;37.898;2023-07-31T11:30:52;99110.56;;;22.92;50.67
71697;BME280;68167;59.120;37.898;2023-07-31T11:33:24;99103.13;;;22.89;51.34
71697;BME280;68167;59.120;37.898;2023-07-31T11:35:51;99116.50;;;22.98;51.99
71697;BME280;68167;59.120;37.898;2023-07-31T11:38:33;99102.78;;;22.91;52.08
71697;BME280;68167;59.120;37.898;2023-07-31T11:41:03;99114.00;;;22.89;51.99
71697;BME280;68167;59.120;37.898;2023-07-31T11:43:33;99095.88;;;22.78;52.46
71697;BME280;68167;59.120;37.898;2023-07-31T11:46:01;99129.66;;;22.96;52.03
71697;BME280;68167;59.120;37.898;2023-07-31T11:48:34;99115.03;;;23.00;51.84
71697;BME280;68167;59.120;37.898;2023-07-31T11:51:08;99126.91;;;23.12;52.19
71697;BME280;68167;59.120;37.898;2023-07-31T11:53:48;99123.47;;;23.15;53.11
71697;BME280;68167;59.120;37.898;2023-07-31T11:56:18;99098.53;;;23.09;53.33
71697;BME280;68167;59.120;37.898;2023-07-31T11:58:58;99129.19;;;23.29;53.73
71697;BME280;68167;59.120;37.898;2023-07-31T12:01:26;99122.34;;;23.35;54.06
71697;BME280;68167;59.120;37.898;2023-07-31T12:03:57;99082.09;;;23.21;53.67
71697;BME280;68167;59.120;37.898;2023-07-31T12:06:34;99136.69;;;23.55;53.90
71697;BME280;68167;59.120;37.898;2023-07-31T12:09:05;99101.50;;;23.43;54.34
71697;BME280;68167;59.120;37.898;2023-07-31T12:11:42;99130.41;;;23.70;53.68
71697;BME280;68167;59.120;37.898;2023-07-31T12:16:47;99071.94;;;23.80;51.93
71697;BME280;68167;59.120;37.898;2023-07-31T12:19:14;99130.06;;;24.40;52.02
71697;BME280;68167;59.120;37.898;2023-07-31T12:21:40;99122.72;;;24.67;51.32
71697;BME280;68167;59.120;37.898;2023-07-31T12:24:07;99126.09;;;24.87;50.68
71697;BME280;68167;59.120;37.898;2023-07-31T12:26:35;99111.53;;;25.02;50.85
71697;BME280;68167;59.120;37.898;2023-07-31T12:29:06;99123.50;;;25.24;49.52
71697;BME280;68167;59.120;37.898;2023-07-31T12:31:33;99129.78;;;25.28;49.52
71697;BME280;68167;59.120;37.898;2023-07-31T12:34:00;99088.53;;;25.00;48.19
71697;BME280;68167;59.120;37.898;2023-07-31T12:36:28;99130.75;;;25.13;48.50
71697;BME280;68167;59.120;37.898;2023-07-31T12:38:58;99097.78;;;24.95;48.49
71697;BME280;68167;59.120;37.898;2023-07-31T12:41:26;99117.91;;;25.13;49.03
71697;BME280;68167;59.120;37.898;2023-07-31T12:43:52;99087.94;;;25.13;48.65
71697;BME280;68167;59.120;37.898;2023-07-31T12:46:19;99082.13;;;25.15;48.67
71697;BME280;68167;59.120;37.898;2023-07-31T12:48:46;99128.06;;;25.50;47.87
71697;BME280;68167;59.120;37.898;2023-07-31T12:51:12;99124.50;;;25.46;48.43
71697;BME280;68167;59.120;37.898;2023-07-31T12:53:39;99126.41;;;25.42;47.69
71697;BME280;68167;59.120;37.898;2023-07-31T12:56:05;99096.75;;;25.37;47.59
71697;BME280;68167;59.120;37.898;2023-07-31T12:58:32;99125.03;;;25.58;47.27
71697;BME280;68167;59.120;37.898;2023-07-31T13:00:58;99141.59;;;25.73;46.78
71697;BME280;68167;59.120;37.898;2023-07-31T13:03:25;99132.69;;;25.79;47.36
71697;BME280;68167;59.120;37.898;2023-07-31T13:05:52;99116.41;;;25.86;46.59
71697;BME280;68167;59.120;37.898;2023-07-31T13:08:18;99123.22;;;26.10;46.46